createdAt,value
2022-09-27T00:02:20.762Z,100.00
2022-09-27T00:04:49.171Z,100.00
2022-09-27T00:07:17.430Z,100.00
2022-09-27T00:09:45.683Z,100.00
2022-09-27T00:12:15.026Z,100.00
2022-09-27T00:14:43.303Z,100.00
2022-09-27T00:17:11.560Z,100.00
2022-09-27T00:19:39.750Z,100.00
2022-09-27T00:22:08.088Z,100.00
2022-09-27T00:24:36.501Z,100.00
2022-09-27T00:27:04.736Z,100.00
2022-09-27T00:29:33.021Z,100.00
2022-09-27T00:32:01.506Z,100.00
2022-09-27T00:34:29.820Z,100.00
2022-09-27T00:36:58.272Z,100.00
2022-09-27T00:39:27.074Z,100.00
2022-09-27T00:41:55.750Z,100.00
2022-09-27T00:44:33.613Z,100.00
2022-09-27T00:47:12.113Z,100.00
2022-09-27T00:49:55.083Z,100.00
2022-09-27T00:52:49.257Z,100.00
2022-09-27T00:55:45.772Z,100.00
2022-09-27T00:58:18.776Z,100.00
2022-09-27T01:00:51.561Z,100.00
2022-09-27T01:03:49.942Z,100.00
2022-09-27T01:06:20.874Z,100.00
2022-09-27T01:08:49.765Z,100.00
2022-09-27T01:11:22.563Z,100.00
2022-09-27T01:14:00.293Z,100.00
2022-09-27T01:16:43.327Z,100.00
2022-09-27T01:19:29.914Z,100.00
2022-09-27T01:22:06.851Z,100.00
2022-09-27T01:25:03.526Z,100.00
2022-09-27T01:27:32.267Z,100.00
2022-09-27T01:30:19.100Z,100.00
2022-09-27T01:32:59.890Z,100.00
2022-09-27T01:35:57.943Z,100.00
2022-09-27T01:39:00.111Z,100.00
2022-09-27T01:41:48.735Z,100.00
2022-09-27T01:44:39.064Z,100.00
2022-09-27T01:47:39.850Z,100.00
2022-09-27T01:50:50.375Z,100.00
2022-09-27T01:53:29.179Z,100.00
2022-09-27T01:56:16.720Z,100.00
2022-09-27T01:59:08.741Z,100.00
2022-09-27T02:01:39.762Z,100.00
2022-09-27T02:04:14.101Z,100.00
2022-09-27T02:07:25.699Z,100.00
2022-09-27T02:10:14.821Z,100.00
2022-09-27T02:12:58.427Z,100.00
2022-09-27T02:15:27.971Z,100.00
2022-09-27T02:18:28.282Z,100.00
2022-09-27T02:21:01.345Z,100.00
2022-09-27T02:23:47.592Z,100.00
2022-09-27T02:26:31.646Z,100.00
2022-09-27T02:29:12.828Z,100.00
2022-09-27T02:31:49.721Z,100.00
2022-09-27T02:34:18.261Z,100.00
2022-09-27T02:36:47.776Z,100.00
2022-09-27T02:39:18.620Z,100.00
2022-09-27T02:41:47.393Z,100.00
2022-09-27T02:44:17.741Z,100.00
2022-09-27T02:47:04.867Z,100.00
2022-09-27T02:49:51.606Z,100.00
2022-09-27T02:53:18.457Z,100.00
2022-09-27T02:56:16.498Z,100.00
2022-09-27T02:59:25.136Z,100.00
2022-09-27T03:02:18.126Z,100.00
2022-09-27T03:05:13.696Z,100.00
2022-09-27T03:07:42.610Z,100.00
2022-09-27T03:10:18.894Z,100.00
2022-09-27T03:12:47.843Z,100.00
2022-09-27T03:15:16.901Z,100.00
2022-09-27T03:18:13.841Z,100.00
2022-09-27T03:20:42.117Z,100.00
2022-09-27T03:23:16.125Z,100.00
2022-09-27T03:25:44.738Z,100.00
2022-09-27T03:28:14.252Z,100.00
2022-09-27T03:30:45.931Z,100.00
2022-09-27T03:33:17.531Z,100.00
2022-09-27T03:35:48.542Z,100.00
2022-09-27T03:38:17.190Z,100.00
2022-09-27T03:40:45.979Z,100.00
2022-09-27T03:43:14.986Z,100.00
2022-09-27T03:45:45.534Z,100.00
2022-09-27T03:48:14.476Z,100.00
2022-09-27T03:50:43.046Z,100.00
2022-09-27T03:53:11.222Z,100.00
2022-09-27T03:55:39.441Z,100.00
2022-09-27T03:58:09.601Z,100.00
2022-09-27T04:00:38.532Z,100.00
2022-09-27T04:03:07.333Z,100.00
2022-09-27T04:05:54.438Z,100.00
2022-09-27T04:08:27.475Z,100.00
2022-09-27T04:10:56.723Z,100.00
2022-09-27T04:13:25.680Z,100.00
2022-09-27T04:15:55.498Z,100.00
2022-09-27T04:18:43.681Z,100.00
2022-09-27T04:21:41.231Z,100.00
2022-09-27T04:24:12.145Z,100.00
2022-09-27T04:26:42.945Z,100.00
2022-09-27T04:29:17.088Z,100.00
2022-09-27T04:31:50.027Z,100.00
2022-09-27T04:35:06.445Z,100.00
2022-09-27T04:37:34.694Z,100.00
2022-09-27T04:40:04.648Z,100.00
2022-09-27T04:42:34.156Z,100.00
2022-09-27T04:45:02.432Z,100.00
2022-09-27T04:47:33.885Z,100.00
2022-09-27T04:50:02.173Z,100.00
2022-09-27T04:52:32.387Z,100.00
2022-09-27T04:55:00.611Z,100.00
2022-09-27T04:57:29.371Z,100.00
2022-09-27T04:59:59.249Z,100.00
2022-09-27T05:02:28.647Z,100.00
2022-09-27T05:05:29.130Z,100.00
2022-09-27T05:07:57.384Z,100.00
2022-09-27T05:10:33.963Z,100.00
2022-09-27T05:13:02.464Z,100.00
2022-09-27T05:15:30.781Z,100.00
2022-09-27T05:18:19.334Z,100.00
2022-09-27T05:21:05.939Z,100.00
2022-09-27T05:23:42.679Z,100.00
2022-09-27T05:26:12.886Z,100.00
2022-09-27T05:28:44.203Z,100.00
2022-09-27T05:31:13.567Z,100.00
2022-09-27T05:33:41.961Z,100.00
2022-09-27T05:36:29.055Z,100.00
2022-09-27T05:39:00.763Z,100.00
2022-09-27T05:41:30.019Z,100.00
2022-09-27T05:43:59.449Z,100.00
2022-09-27T05:46:27.870Z,100.00
2022-09-27T05:48:56.370Z,100.00
2022-09-27T05:51:24.700Z,100.00
2022-09-27T05:53:52.870Z,100.00
2022-09-27T05:56:27.782Z,100.00
2022-09-27T05:59:11.001Z,100.00
2022-09-27T06:01:57.955Z,100.00
2022-09-27T06:04:47.486Z,100.00
2022-09-27T06:07:34.301Z,100.00
2022-09-27T06:10:05.267Z,100.00
2022-09-27T06:12:34.637Z,100.00
2022-09-27T06:15:04.625Z,100.00
2022-09-27T06:17:40.360Z,100.00
2022-09-27T06:20:18.639Z,100.00
2022-09-27T06:22:47.993Z,100.00
2022-09-27T06:25:16.697Z,100.00
2022-09-27T06:28:05.619Z,100.00
2022-09-27T06:30:43.820Z,100.00
2022-09-27T06:33:24.992Z,100.00
2022-09-27T06:35:55.645Z,100.00
2022-09-27T06:38:26.021Z,100.00
2022-09-27T06:41:07.039Z,100.00
2022-09-27T06:43:52.532Z,100.00
2022-09-27T06:46:40.031Z,100.00
2022-09-27T06:49:26.866Z,100.00
2022-09-27T06:51:55.705Z,100.00
2022-09-27T06:54:24.118Z,100.00
2022-09-27T06:56:52.539Z,100.00
2022-09-27T06:59:39.445Z,100.00
2022-09-27T07:02:27.981Z,100.00
2022-09-27T07:05:20.194Z,100.00
2022-09-27T07:08:00.601Z,100.00
2022-09-27T07:10:34.224Z,100.00
2022-09-27T07:13:10.185Z,100.00
2022-09-27T07:15:41.775Z,100.00
2022-09-27T07:18:13.758Z,100.00
2022-09-27T07:20:42.453Z,100.00
2022-09-27T07:23:17.101Z,100.00
2022-09-27T07:25:45.561Z,100.00
2022-09-27T07:28:21.084Z,100.00
2022-09-27T07:30:55.894Z,100.00
2022-09-27T07:33:27.304Z,100.00
2022-09-27T07:35:55.558Z,100.00
2022-09-27T07:38:24.419Z,100.00
2022-09-27T07:41:00.653Z,100.00
2022-09-27T07:43:29.053Z,100.00
2022-09-27T07:46:00.046Z,100.00
2022-09-27T07:48:39.226Z,100.00
2022-09-27T07:51:16.466Z,100.00
2022-09-27T07:53:51.744Z,100.00
2022-09-27T07:56:52.282Z,100.00
2022-09-27T07:59:23.273Z,100.00
2022-09-27T08:01:51.640Z,100.00
2022-09-27T08:04:19.966Z,100.00
2022-09-27T08:06:50.818Z,100.00
2022-09-27T08:09:21.234Z,100.00
2022-09-27T08:11:50.469Z,100.00
2022-09-27T08:14:23.587Z,100.00
2022-09-27T08:16:56.928Z,100.00
2022-09-27T08:19:34.182Z,100.00
2022-09-27T08:22:24.418Z,100.00
2022-09-27T08:25:00.191Z,100.00
2022-09-27T08:27:42.551Z,100.00
2022-09-27T08:30:31.541Z,99.88
2022-09-27T08:33:05.223Z,99.22
2022-09-27T08:35:38.928Z,99.38
2022-09-27T08:38:07.753Z,98.28
2022-09-27T08:40:49.975Z,97.07
2022-09-27T08:43:45.305Z,92.98
2022-09-27T08:46:24.413Z,91.72
2022-09-27T08:49:02.705Z,91.14
2022-09-27T08:51:33.599Z,91.55
2022-09-27T08:54:20.346Z,92.99
2022-09-27T08:56:52.413Z,90.11
2022-09-27T08:59:27.502Z,92.05
2022-09-27T09:01:56.443Z,91.49
2022-09-27T09:04:39.350Z,92.16
2022-09-27T09:07:08.727Z,91.12
2022-09-27T09:10:42.886Z,91.24
2022-09-27T09:13:51.466Z,90.30
2022-09-27T09:16:27.711Z,88.44
2022-09-27T09:19:44.289Z,88.40
2022-09-27T09:22:51.102Z,87.20
2022-09-27T09:25:29.598Z,85.97
2022-09-27T09:28:16.849Z,86.20
2022-09-27T09:30:48.179Z,84.61
2022-09-27T09:33:32.237Z,84.24
2022-09-27T09:36:34.915Z,83.61
2022-09-27T09:39:13.526Z,84.66
2022-09-27T09:42:07.714Z,84.86
2022-09-27T09:44:59.814Z,83.93
2022-09-27T09:47:44.414Z,82.26
2022-09-27T09:50:29.617Z,81.65
2022-09-27T09:53:19.757Z,80.27
2022-09-27T09:56:02.802Z,80.05
2022-09-27T09:58:39.650Z,78.92
2022-09-27T10:01:21.285Z,79.26
2022-09-27T10:03:49.741Z,80.35
2022-09-27T10:06:19.624Z,79.42
2022-09-27T10:08:48.151Z,79.00
2022-09-27T10:11:41.173Z,79.81
2022-09-27T10:14:31.907Z,80.47
2022-09-27T10:17:10.509Z,78.98
2022-09-27T10:19:39.989Z,77.42
2022-09-27T10:22:40.252Z,77.32
2022-09-27T10:25:18.349Z,76.01
2022-09-27T10:27:56.260Z,74.74
2022-09-27T10:30:34.256Z,76.63
2022-09-27T10:33:20.373Z,75.22
2022-09-27T10:35:54.342Z,73.65
2022-09-27T10:38:37.194Z,72.50
2022-09-27T10:41:52.918Z,73.55
2022-09-27T10:44:29.678Z,71.45
2022-09-27T10:47:24.131Z,72.53
2022-09-27T10:50:46.023Z,70.84
2022-09-27T10:53:35.368Z,70.17
2022-09-27T10:56:07.946Z,69.85
2022-09-27T10:58:38.625Z,70.84
2022-09-27T11:01:12.710Z,70.26
2022-09-27T11:04:01.570Z,68.91
2022-09-27T11:06:37.869Z,70.81
2022-09-27T11:09:26.916Z,68.58
2022-09-27T11:12:20.676Z,67.90
2022-09-27T11:15:02.893Z,68.33
2022-09-27T11:17:44.265Z,67.64
2022-09-27T11:20:30.427Z,64.60
2022-09-27T11:23:28.338Z,65.39
2022-09-27T11:26:30.370Z,67.14
2022-09-27T11:29:07.967Z,66.44
2022-09-27T11:32:13.644Z,66.41
2022-09-27T11:35:00.145Z,68.41
2022-09-27T11:37:28.666Z,65.77
2022-09-27T11:40:15.399Z,64.73
2022-09-27T11:43:02.109Z,64.70
2022-09-27T11:48:46.794Z,63.43
2022-09-27T11:51:33.116Z,64.47
2022-09-27T11:54:25.189Z,64.25
2022-09-27T11:56:56.422Z,63.14
2022-09-27T11:59:43.586Z,62.50
2022-09-27T12:02:15.317Z,63.48
2022-09-27T12:05:14.961Z,64.67
2022-09-27T12:08:17.128Z,64.12
2022-09-27T12:10:54.655Z,64.55
2022-09-27T12:13:46.387Z,63.03
2022-09-27T12:16:17.848Z,62.72
2022-09-27T12:18:51.452Z,64.90
2022-09-27T12:21:33.534Z,64.55
2022-09-27T12:24:03.673Z,63.57
2022-09-27T12:26:52.954Z,63.32
2022-09-27T12:29:33.573Z,61.76
2022-09-27T12:32:33.356Z,63.49
2022-09-27T12:35:17.199Z,63.49
2022-09-27T12:37:46.547Z,63.79
2022-09-27T12:40:21.630Z,63.93
2022-09-27T12:42:59.468Z,64.52
2022-09-27T12:45:47.011Z,62.01
2022-09-27T12:48:40.131Z,62.95
2022-09-27T12:51:12.241Z,62.17
2022-09-27T12:54:02.040Z,61.96
2022-09-27T12:56:46.244Z,63.12
2022-09-27T12:59:44.193Z,63.79
2022-09-27T13:02:41.453Z,64.17
2022-09-27T13:05:22.801Z,63.07
2022-09-27T13:08:03.856Z,65.19
2022-09-27T13:10:45.416Z,64.21
2022-09-27T13:13:27.846Z,64.60
2022-09-27T13:16:00.133Z,65.44
2022-09-27T13:18:36.866Z,64.61
2022-09-27T13:21:09.773Z,66.01
2022-09-27T13:23:45.320Z,66.68
2022-09-27T13:26:43.706Z,67.14
2022-09-27T13:29:25.093Z,64.79
2022-09-27T13:32:02.441Z,65.54
2022-09-27T13:34:38.099Z,66.53
2022-09-27T13:37:24.011Z,66.82
2022-09-27T13:40:16.071Z,66.37
2022-09-27T13:43:22.003Z,67.73
2022-09-27T13:45:56.082Z,67.86
2022-09-27T13:48:57.685Z,67.89
2022-09-27T13:51:48.033Z,67.66
2022-09-27T13:54:39.577Z,68.54
2022-09-27T13:57:38.962Z,68.06
2022-09-27T14:00:14.735Z,68.08
2022-09-27T14:03:08.023Z,69.13
2022-09-27T14:06:08.960Z,70.18
2022-09-27T14:08:49.460Z,70.76
2022-09-27T14:11:30.150Z,71.17
2022-09-27T14:13:59.715Z,72.33
2022-09-27T14:16:36.026Z,72.43
2022-09-27T14:19:04.746Z,72.04
2022-09-27T14:21:39.266Z,71.64
2022-09-27T14:24:29.822Z,71.91
2022-09-27T14:27:09.487Z,72.35
2022-09-27T14:30:00.973Z,72.62
2022-09-27T14:32:34.723Z,72.22
2022-09-27T14:35:36.549Z,72.39
2022-09-27T14:38:36.093Z,71.36
2022-09-27T14:41:07.614Z,71.88
2022-09-27T14:43:45.283Z,71.92
2022-09-27T14:46:29.182Z,72.06
2022-09-27T14:48:59.475Z,71.80
2022-09-27T14:51:30.981Z,71.61
2022-09-27T14:54:04.220Z,71.74
2022-09-27T14:56:37.917Z,70.64
2022-09-27T14:59:27.081Z,70.13
2022-09-27T15:01:55.438Z,70.42
2022-09-27T15:04:24.618Z,70.42
2022-09-27T15:06:53.176Z,70.39
2022-09-27T15:09:23.066Z,70.14
2022-09-27T15:12:00.328Z,69.83
2022-09-27T15:14:33.277Z,69.94
2022-09-27T15:17:06.112Z,70.77
2022-09-27T15:19:37.146Z,71.13
2022-09-27T15:22:34.164Z,71.59
2022-09-27T15:25:19.438Z,72.33
2022-09-27T15:27:54.044Z,72.54
2022-09-27T15:30:43.704Z,72.53
2022-09-27T15:33:24.186Z,72.94
2022-09-27T15:35:54.911Z,72.91
2022-09-27T15:38:33.733Z,73.27
2022-09-27T15:41:17.070Z,73.86
2022-09-27T15:43:48.257Z,74.16
2022-09-27T15:46:22.828Z,74.53
2022-09-27T15:49:21.990Z,75.32
2022-09-27T15:51:55.431Z,76.29
2022-09-27T15:54:27.421Z,76.89
2022-09-27T15:56:58.495Z,76.56
2022-09-27T15:59:28.826Z,77.22
2022-09-27T16:02:01.173Z,78.01
2022-09-27T16:04:33.050Z,78.33
2022-09-27T16:07:04.575Z,79.02
2022-09-27T16:09:33.218Z,79.79
2022-09-27T16:12:01.636Z,80.45
2022-09-27T16:14:29.836Z,80.86
2022-09-27T16:16:59.833Z,81.52
2022-09-27T16:19:28.247Z,81.64
2022-09-27T16:21:56.457Z,82.10
2022-09-27T16:24:25.707Z,82.87
2022-09-27T16:26:53.951Z,83.38
2022-09-27T16:29:22.342Z,83.80
2022-09-27T16:31:51.032Z,84.23
2022-09-27T16:34:19.484Z,84.65
2022-09-27T16:36:49.908Z,85.25
2022-09-27T16:39:18.168Z,86.10
2022-09-27T16:41:46.524Z,86.36
2022-09-27T16:44:17.686Z,87.02
2022-09-27T16:46:46.459Z,87.93
2022-09-27T16:49:33.773Z,89.29
2022-09-27T16:52:02.166Z,89.39
2022-09-27T16:54:31.886Z,89.81
2022-09-27T16:57:00.205Z,90.98
2022-09-27T16:59:28.574Z,91.07
2022-09-27T17:01:57.685Z,91.86
2022-09-27T17:04:28.145Z,91.97
2022-09-27T17:06:57.179Z,92.63
2022-09-27T17:09:26.116Z,92.90
2022-09-27T17:11:56.430Z,93.13
2022-09-27T17:14:25.438Z,93.42
2022-09-27T17:16:53.857Z,93.61
2022-09-27T17:19:23.509Z,93.93
2022-09-27T17:21:51.776Z,93.79
2022-09-27T17:24:20.101Z,94.15
2022-09-27T17:26:48.526Z,94.42
2022-09-27T17:29:17.392Z,94.57
2022-09-27T17:31:46.437Z,94.59
2022-09-27T17:34:15.757Z,94.62
2022-09-27T17:36:48.525Z,94.96
2022-09-27T17:39:18.876Z,95.33
2022-09-27T17:41:49.347Z,95.45
2022-09-27T17:44:18.764Z,95.58
2022-09-27T17:47:07.830Z,95.89
2022-09-27T17:49:54.941Z,96.36
2022-09-27T17:52:25.058Z,96.40
2022-09-27T17:54:55.779Z,96.76
2022-09-27T17:57:24.716Z,96.78
2022-09-27T17:59:53.780Z,96.82
2022-09-27T18:02:22.203Z,97.26
2022-09-27T18:04:50.642Z,97.26
2022-09-27T18:07:20.036Z,97.66
2022-09-27T18:09:48.452Z,97.64
2022-09-27T18:12:16.871Z,97.96
2022-09-27T18:14:45.942Z,98.17
2022-09-27T18:17:14.191Z,98.38
2022-09-27T18:19:42.491Z,98.24
2022-09-27T18:22:10.709Z,98.50
2022-09-27T18:24:38.867Z,98.65
2022-09-27T18:27:07.236Z,98.58
2022-09-27T18:29:35.387Z,98.96
2022-09-27T18:32:03.735Z,99.01
2022-09-27T18:34:32.034Z,99.30
2022-09-27T18:37:00.267Z,99.19
2022-09-27T18:39:28.595Z,99.21
2022-09-27T18:41:56.949Z,99.48
2022-09-27T18:44:25.286Z,99.53
2022-09-27T18:46:53.482Z,99.58
2022-09-27T18:49:25.761Z,99.71
2022-09-27T18:51:55.995Z,99.91
2022-09-27T18:54:24.373Z,100.00
2022-09-27T18:56:52.754Z,99.93
2022-09-27T18:59:21.611Z,100.00
2022-09-27T19:01:50.567Z,100.00
2022-09-27T19:04:25.076Z,100.00
2022-09-27T19:06:55.973Z,100.00
2022-09-27T19:09:26.896Z,100.00
2022-09-27T19:11:55.202Z,100.00
2022-09-27T19:14:23.701Z,100.00
2022-09-27T19:16:52.261Z,100.00
2022-09-27T19:19:21.268Z,100.00
2022-09-27T19:21:49.473Z,100.00
2022-09-27T19:24:19.177Z,100.00
2022-09-27T19:26:50.080Z,100.00
2022-09-27T19:29:18.414Z,100.00
2022-09-27T19:31:46.953Z,100.00
2022-09-27T19:34:15.531Z,100.00
2022-09-27T19:36:43.844Z,100.00
2022-09-27T19:39:12.251Z,100.00
2022-09-27T19:41:40.590Z,100.00
2022-09-27T19:44:08.838Z,100.00
2022-09-27T19:46:37.639Z,100.00
2022-09-27T19:49:06.009Z,100.00
2022-09-27T19:51:34.255Z,100.00
2022-09-27T19:54:04.285Z,100.00
2022-09-27T19:56:32.723Z,100.00
2022-09-27T19:59:06.259Z,100.00
2022-09-27T20:01:36.442Z,100.00
2022-09-27T20:04:04.775Z,100.00
2022-09-27T20:06:33.252Z,100.00
2022-09-27T20:09:03.342Z,100.00
2022-09-27T20:11:32.845Z,100.00
2022-09-27T20:14:01.257Z,100.00
2022-09-27T20:16:29.739Z,100.00
2022-09-27T20:18:59.872Z,100.00
2022-09-27T20:21:32.945Z,100.00
2022-09-27T20:24:05.258Z,100.00
2022-09-27T20:26:36.524Z,100.00
2022-09-27T20:29:06.887Z,100.00
2022-09-27T20:31:39.717Z,100.00
2022-09-27T20:34:16.500Z,100.00
2022-09-27T20:36:45.372Z,100.00
2022-09-27T20:39:16.221Z,100.00
2022-09-27T20:41:46.604Z,100.00
2022-09-27T20:44:17.819Z,100.00
2022-09-27T20:46:48.176Z,100.00
2022-09-27T20:49:18.890Z,100.00
2022-09-27T20:51:51.548Z,100.00
2022-09-27T20:54:20.268Z,100.00
2022-09-27T20:56:49.151Z,100.00
2022-09-27T20:59:23.003Z,100.00
2022-09-27T21:01:53.489Z,100.00
2022-09-27T21:04:23.553Z,100.00
2022-09-27T21:06:52.781Z,100.00
2022-09-27T21:09:21.115Z,100.00
2022-09-27T21:11:52.088Z,100.00
2022-09-27T21:14:20.505Z,100.00
2022-09-27T21:16:49.296Z,100.00
2022-09-27T21:19:17.650Z,100.00
2022-09-27T21:21:46.083Z,100.00
2022-09-27T21:24:14.554Z,100.00
2022-09-27T21:26:42.990Z,100.00
2022-09-27T21:29:13.707Z,100.00
2022-09-27T21:31:43.240Z,100.00
2022-09-27T21:34:11.802Z,100.00
2022-09-27T21:36:40.089Z,100.00
2022-09-27T21:39:09.584Z,100.00
2022-09-27T21:41:39.331Z,100.00
2022-09-27T21:44:08.639Z,100.00
2022-09-27T21:46:40.219Z,100.00
2022-09-27T21:49:09.262Z,100.00
2022-09-27T21:51:39.961Z,100.00
2022-09-27T21:54:12.590Z,100.00
2022-09-27T21:56:42.271Z,100.00
2022-09-27T21:59:13.388Z,100.00
2022-09-27T22:01:44.215Z,100.00
2022-09-27T22:04:13.102Z,100.00
2022-09-27T22:06:41.389Z,100.00
2022-09-27T22:09:14.947Z,100.00
2022-09-27T22:11:44.694Z,100.00
2022-09-27T22:14:15.541Z,100.00
2022-09-27T22:16:43.886Z,100.00
2022-09-27T22:19:14.487Z,100.00
2022-09-27T22:21:43.018Z,100.00
2022-09-27T22:24:14.986Z,100.00
2022-09-27T22:26:48.161Z,100.00
2022-09-27T22:29:16.968Z,100.00
2022-09-27T22:31:45.290Z,100.00
2022-09-27T22:34:18.947Z,100.00
2022-09-27T22:36:47.327Z,100.00
2022-09-27T22:39:16.016Z,100.00
2022-09-27T22:41:46.906Z,100.00
2022-09-27T22:44:15.141Z,100.00
2022-09-27T22:46:44.224Z,100.00
2022-09-27T22:49:12.795Z,100.00
2022-09-27T22:51:41.114Z,100.00
2022-09-27T22:54:09.349Z,100.00
2022-09-27T22:56:37.530Z,100.00
2022-09-27T22:59:06.023Z,100.00
2022-09-27T23:01:35.801Z,100.00
2022-09-27T23:04:04.329Z,100.00
2022-09-27T23:06:33.583Z,100.00
2022-09-27T23:09:02.885Z,100.00
2022-09-27T23:11:31.226Z,100.00
2022-09-27T23:13:59.466Z,100.00
2022-09-27T23:16:27.718Z,100.00
2022-09-27T23:18:57.092Z,100.00
2022-09-27T23:21:27.207Z,100.00
2022-09-27T23:23:59.939Z,100.00
2022-09-27T23:26:29.348Z,100.00
2022-09-27T23:28:59.908Z,100.00
2022-09-27T23:31:30.836Z,100.00
2022-09-27T23:34:03.257Z,100.00
2022-09-27T23:36:31.548Z,100.00
2022-09-27T23:39:01.136Z,100.00
2022-09-27T23:41:29.428Z,100.00
2022-09-27T23:43:58.278Z,100.00
2022-09-27T23:46:26.697Z,100.00
2022-09-27T23:48:59.146Z,100.00
2022-09-27T23:51:27.489Z,100.00
2022-09-27T23:53:57.242Z,100.00
2022-09-27T23:56:25.935Z,100.00
2022-09-27T23:58:54.167Z,100.00
